Time;durP1;ratioP1;P1;durP2;ratioP2;P2;SDS_P1;SDS_P2;PMS_P1;PMS_P2;Temp;Humidity;BMP_temperature;BMP_pressure;BME280_temperature;BME280_humidity;BME280_pressure;Samples;Min_cycle;Max_cycle;Signal;HPM_P1;HPM_P2
2023/10/14 00:05:10;;;;;;;9.70;2.33;;;13.60;92.70;;;;;;5067916;28;20041;-50
2023/10/14 00:07:38;;;;;;;7.50;1.20;;;13.60;93.00;;;;;;5072648;28;20028;-49
2023/10/14 00:10:08;;;;;;;5.22;1.30;;;13.60;92.80;;;;;;5075504;28;20040;-50
2023/10/14 00:12:37;;;;;;;;;;;13.70;93.00;;;;;;5092961;28;20042;-53
2023/10/14 00:15:06;;;;;;;9.85;1.30;;;13.60;92.90;;;;;;5083939;28;20300;-48
2023/10/14 00:17:42;;;;;;;7.40;1.48;;;13.60;92.90;;;;;;5091507;28;20093;-49
2023/10/14 00:20:10;;;;;;;4.97;1.45;;;13.60;93.00;;;;;;5076178;28;20102;-48
2023/10/14 00:22:39;;;;;;;6.85;1.55;;;13.60;92.90;;;;;;5090657;28;20578;-49
2023/10/14 00:25:23;;;;;;;8.90;1.80;;;13.60;93.00;;;;;;5090416;28;20028;-48
2023/10/14 00:27:50;;;;;;;4.13;0.93;;;13.60;93.00;;;;;;5089843;28;20468;-48
2023/10/14 00:30:19;;;;;;;4.93;1.92;;;13.50;93.00;;;;;;5091124;28;20074;-48
2023/10/14 00:32:47;;;;;;;5.53;1.13;;;13.50;93.00;;;;;;5077856;28;20021;-48
2023/10/14 00:35:18;;;;;;;6.20;1.70;;;13.60;93.00;;;;;;5074923;28;20254;-51
2023/10/14 00:37:44;;;;;;;6.25;1.23;;;13.50;93.00;;;;;;5076260;28;20082;-50
2023/10/14 00:40:22;;;;;;;9.32;2.15;;;13.60;93.10;;;;;;5075222;28;20583;-49
2023/10/14 00:42:51;;;;;;;8.55;1.90;;;13.50;93.00;;;;;;5096272;28;20059;-49
2023/10/14 00:45:20;;;;;;;8.43;1.55;;;13.40;93.00;;;;;;5086030;28;20103;-48
2023/10/14 00:47:51;;;;;;;7.63;1.63;;;13.40;93.10;;;;;;5079419;28;20379;-48
2023/10/14 00:50:33;;;;;;;10.90;1.95;;;13.40;93.20;;;;;;5090179;28;20044;-49
2023/10/14 00:53:05;;;;;;;9.77;1.40;;;13.40;93.10;;;;;;5096090;28;20039;-49
2023/10/14 00:58:21;;;;;;;8.95;1.55;;;13.40;93.30;;;;;;5076168;28;20222;-47
2023/10/14 01:01:00;;;;;;;4.78;1.35;;;13.40;93.20;;;;;;5081706;28;20024;-47
2023/10/14 01:03:34;;;;;;;8.88;1.48;;;13.30;93.40;;;;;;5084339;28;20610;-49
2023/10/14 01:06:53;;;;;;;12.00;2.47;;;13.20;93.30;;;;;;5076172;28;20114;-50
2023/10/14 01:08:54;;;;;;;7.25;1.20;;;13.10;93.60;;;;;;5074156;28;20044;-50
2023/10/14 01:11:24;;;;;;;9.00;1.42;;;12.90;93.60;;;;;;5094591;28;20117;-51
2023/10/14 01:13:52;;;;;;;;;;;12.90;93.60;;;;;;5095611;28;20071;-50
2023/10/14 01:16:24;;;;;;;5.03;1.67;;;12.90;93.60;;;;;;5095118;28;20293;-47
2023/10/14 01:18:53;;;;;;;10.13;1.90;;;12.90;93.60;;;;;;5075381;28;20064;-48
2023/10/14 01:21:28;;;;;;;7.25;1.65;;;12.80;93.60;;;;;;5075600;28;20044;-48
2023/10/14 01:24:01;;;;;;;6.78;1.30;;;12.80;93.60;;;;;;5081925;28;20568;-47
2023/10/14 01:26:33;;;;;;;10.82;1.80;;;12.70;93.50;;;;;;5095335;28;20441;-47
2023/10/14 01:29:00;;;;;;;9.60;2.13;;;12.70;93.60;;;;;;5092664;28;20032;-47
2023/10/14 01:32:06;;;;;;;8.63;2.08;;;12.70;93.60;;;;;;5086753;28;20030;-47
2023/10/14 01:34:42;;;;;;;11.70;2.50;;;12.60;93.50;;;;;;5090014;28;20028;-47
2023/10/14 01:37:15;;;;;;;8.30;1.60;;;12.60;93.40;;;;;;5075065;28;20036;-47
2023/10/14 01:39:48;;;;;;;5.78;2.05;;;12.60;93.40;;;;;;5087128;28;20032;-49
2023/10/14 01:42:18;;;;;;;7.78;1.63;;;12.60;93.60;;;;;;5076953;28;20032;-47
2023/10/14 01:44:45;;;;;;;8.82;1.83;;;12.60;93.50;;;;;;5094979;28;20051;-46
2023/10/14 01:47:12;;;;;;;12.13;2.65;;;12.60;93.60;;;;;;5094639;28;20036;-47
2023/10/14 01:49:39;;;;;;;12.23;2.13;;;12.60;93.70;;;;;;5076882;28;20063;-48
2023/10/14 01:52:11;;;;;;;7.63;2.30;;;12.60;93.60;;;;;;5080562;28;20460;-47
2023/10/14 01:54:39;;;;;;;8.93;1.65;;;12.60;93.70;;;;;;5095091;28;20020;-46
2023/10/14 01:57:12;;;;;;;12.38;3.10;;;12.50;93.60;;;;;;5094996;28;20443;-47
2023/10/14 01:59:40;;;;;;;16.55;2.53;;;12.50;93.50;;;;;;5089415;28;20135;-48
2023/10/14 02:02:09;;;;;;;10.50;2.10;;;12.40;92.50;;;;;;5091095;28;20417;-46
2023/10/14 02:04:38;;;;;;;10.73;2.00;;;12.20;91.00;;;;;;5089772;28;20429;-48
2023/10/14 02:07:21;;;;;;;20.70;2.90;;;12.20;90.30;;;;;;5092354;28;20460;-46
2023/10/14 02:09:48;;;;;;;10.40;2.65;;;12.10;89.30;;;;;;5094469;28;20012;-46
2023/10/14 02:12:18;;;;;;;11.32;3.17;;;12.00;88.70;;;;;;5093369;28;20036;-46
2023/10/14 02:14:57;;;;;;;13.52;2.40;;;12.00;88.20;;;;;;5073102;28;20535;-52
2023/10/14 02:17:24;;;;;;;8.93;2.40;;;11.90;88.10;;;;;;5093351;28;20031;-48
2023/10/14 02:20:06;;;;;;;12.82;2.70;;;11.90;88.00;;;;;;5093467;28;20084;-47
2023/10/14 02:22:38;;;;;;;11.73;2.70;;;11.90;88.00;;;;;;5090041;28;20019;-46
2023/10/14 02:25:05;;;;;;;13.20;2.40;;;11.90;88.30;;;;;;5094408;28;20043;-48
2023/10/14 02:27:35;;;;;;;10.43;2.70;;;11.90;87.60;;;;;;5094099;28;20074;-47
2023/10/14 02:30:05;;;;;;;8.40;3.13;;;11.90;87.90;;;;;;5087764;28;20029;-48
2023/10/14 02:32:34;;;;;;;7.93;3.17;;;11.90;87.90;;;;;;5081650;28;20048;-47
2023/10/14 02:35:00;;;;;;;11.25;2.40;;;11.90;88.00;;;;;;5086938;28;20024;-46
2023/10/14 02:37:27;;;;;;;9.48;2.55;;;11.90;88.30;;;;;;5076454;28;20035;-48
2023/10/14 02:39:54;;;;;;;10.73;3.00;;;11.90;88.30;;;;;;5084271;28;20512;-49
2023/10/14 02:42:25;;;;;;;13.50;2.60;;;11.80;88.20;;;;;;5073939;28;20035;-47
2023/10/14 02:44:52;;;;;;;12.35;2.95;;;11.80;88.70;;;;;;5073900;28;20032;-47
2023/10/14 02:47:26;;;;;;;12.02;2.97;;;11.70;89.00;;;;;;5090234;28;20032;-47
2023/10/14 02:49:53;;;;;;;9.75;1.98;;;11.70;89.00;;;;;;5076852;28;20032;-46
2023/10/14 02:52:29;;;;;;;12.15;3.20;;;11.60;89.10;;;;;;5093879;28;20028;-47
2023/10/14 02:57:41;;;;;;;12.43;2.90;;;11.60;88.80;;;;;;5093749;28;20035;-46
2023/10/14 03:00:17;;;;;;;10.77;2.47;;;11.50;88.90;;;;;;5101027;28;20336;-47
2023/10/14 03:05:51;;;;;;;12.45;2.78;;;11.50;89.00;;;;;;5066942;28;20091;-48
2023/10/14 03:08:21;;;;;;;15.07;2.88;;;11.50;89.00;;;;;;5102518;28;20048;-47
2023/10/14 03:10:59;;;;;;;14.88;2.33;;;11.50;89.00;;;;;;5114203;28;20074;-46
2023/10/14 03:13:41;;;;;;;14.98;3.28;;;11.50;89.00;;;;;;5113815;28;20035;-46
2023/10/14 03:16:07;;;;;;;8.02;1.92;;;11.50;89.20;;;;;;5113460;28;20039;-46
2023/10/14 03:18:40;;;;;;;14.60;4.03;;;11.50;88.80;;;;;;5093172;28;20031;-48
2023/10/14 03:21:24;;;;;;;9.73;2.53;;;11.40;88.80;;;;;;5111342;28;20035;-47
2023/10/14 03:23:51;;;;;;;11.63;2.60;;;11.40;88.60;;;;;;5113378;28;20032;-46
2023/10/14 03:26:20;;;;;;;10.05;2.42;;;11.40;88.60;;;;;;5108491;28;20031;-46
2023/10/14 03:28:50;;;;;;;10.23;2.20;;;11.30;88.30;;;;;;5093121;28;20092;-46
2023/10/14 03:31:19;;;;;;;7.75;1.70;;;11.30;88.40;;;;;;5103432;28;20034;-46
2023/10/14 03:33:48;;;;;;;12.63;2.60;;;11.30;88.20;;;;;;5093300;28;20043;-47
2023/10/14 03:36:16;;;;;;;10.57;1.92;;;11.30;88.00;;;;;;5092916;28;20036;-46
2023/10/14 03:38:47;;;;;;;12.30;2.20;;;11.30;88.20;;;;;;5097058;28;20476;-46
2023/10/14 03:41:23;;;;;;;13.82;2.25;;;11.30;88.00;;;;;;5096583;28;20032;-47
2023/10/14 03:44:00;;;;;;;12.05;2.55;;;11.30;87.90;;;;;;5113525;28;20106;-46
2023/10/14 03:46:40;;;;;;;7.93;2.20;;;11.20;87.80;;;;;;5111720;28;20031;-46
2023/10/14 03:52:10;;;;;;;7.97;1.92;;;11.20;88.00;;;;;;5109898;28;20062;-47
2023/10/14 03:54:41;;;;;;;7.20;2.65;;;11.20;88.00;;;;;;5112752;28;20047;-47
2023/10/14 03:57:17;;;;;;;13.23;3.10;;;11.20;87.60;;;;;;5105902;28;20023;-49
2023/10/14 03:59:53;;;;;;;9.35;2.63;;;11.20;87.80;;;;;;5078848;28;20035;-47
2023/10/14 04:02:35;;;;;;;18.38;2.53;;;11.20;88.20;;;;;;5113641;28;20031;-46
2023/10/14 04:05:09;;;;;;;8.13;2.50;;;11.20;88.30;;;;;;5113255;28;20051;-47
2023/10/14 04:07:40;;;;;;;6.18;1.92;;;11.00;88.20;;;;;;5114565;28;20036;-47
2023/10/14 04:10:10;;;;;;;13.38;2.28;;;11.00;88.40;;;;;;5098104;28;20036;-47
2023/10/14 04:12:37;;;;;;;8.38;1.90;;;11.00;88.40;;;;;;5096911;28;20028;-46
2023/10/14 04:17:38;;;;;;;13.10;2.30;;;10.90;88.50;;;;;;5097092;28;20069;-47
2023/10/14 04:27:45;;;;;;;9.57;2.38;;;11.00;88.40;;;;;;5117125;28;20026;-48
2023/10/14 04:30:19;;;;;;;11.15;2.15;;;11.00;88.40;;;;;;5098135;28;20039;-46
2023/10/14 04:35:22;;;;;;;17.38;2.17;;;11.10;88.10;;;;;;5097695;28;20046;-47
2023/10/14 04:38:02;;;;;;;9.38;1.65;;;11.20;88.10;;;;;;5096384;28;20046;-46
2023/10/14 04:46:46;;;;;;;13.48;2.75;;;11.20;87.60;;;;;;5110675;28;20546;-46
2023/10/14 04:48:58;;;;;;;;;;;11.10;87.20;;;;;;5103485;28;20478;-46
2023/10/14 04:51:39;;;;;;;8.50;2.22;;;11.10;87.10;;;;;;5110485;28;19970;-51
2023/10/14 04:54:09;;;;;;;7.68;1.77;;;11.00;87.00;;;;;;5115513;28;20387;-46
2023/10/14 04:56:39;;;;;;;11.73;2.08;;;11.10;86.80;;;;;;5098315;28;20066;-47
2023/10/14 04:59:06;;;;;;;13.82;2.03;;;11.10;86.90;;;;;;5103846;28;20032;-46
2023/10/14 05:01:35;;;;;;;6.40;1.67;;;11.10;87.10;;;;;;5107387;28;20369;-48
2023/10/14 05:04:01;;;;;;;10.38;1.83;;;11.20;87.00;;;;;;5097943;28;20461;-46
2023/10/14 05:06:40;;;;;;;13.77;2.70;;;11.20;86.70;;;;;;5097727;28;20407;-47
2023/10/14 05:09:25;;;;;;;11.55;2.08;;;11.20;86.80;;;;;;5114290;28;20055;-46
2023/10/14 05:11:53;;;;;;;7.30;2.05;;;11.10;86.90;;;;;;5088964;28;20075;-48
2023/10/14 05:14:33;;;;;;;8.75;2.55;;;11.20;87.20;;;;;;5098658;28;20127;-47
2023/10/14 05:17:47;;;;;;;11.88;2.75;;;11.10;86.90;;;;;;5100731;28;20527;-46
2023/10/14 05:19:58;;;;;;;7.20;1.90;;;11.00;86.90;;;;;;5091701;28;20047;-48
2023/10/14 05:22:37;;;;;;;16.00;2.38;;;11.10;87.10;;;;;;5114933;28;20039;-48
2023/10/14 05:25:15;;;;;;;15.10;2.63;;;11.00;87.00;;;;;;5114872;28;20036;-46
2023/10/14 05:27:54;;;;;;;11.40;2.10;;;11.00;86.50;;;;;;5116082;28;20043;-46
2023/10/14 05:30:21;;;;;;;9.65;2.35;;;11.00;86.50;;;;;;5081343;28;20032;-46
2023/10/14 05:32:51;;;;;;;15.88;3.25;;;11.00;86.80;;;;;;5115643;28;20066;-46
2023/10/14 05:35:17;;;;;;;10.50;2.33;;;10.90;86.70;;;;;;5103719;28;20077;-47
2023/10/14 05:37:45;;;;;;;14.00;3.40;;;10.90;86.60;;;;;;5097823;28;20112;-47
2023/10/14 05:40:16;;;;;;;6.22;2.33;;;10.90;86.50;;;;;;5103017;28;20028;-47
2023/10/14 05:42:45;;;;;;;8.18;2.20;;;10.80;86.70;;;;;;5081210;28;20035;-48
2023/10/14 05:45:14;;;;;;;13.45;2.58;;;10.80;86.70;;;;;;5098264;28;20042;-48
2023/10/14 05:47:46;;;;;;;5.88;2.03;;;10.70;86.80;;;;;;5084399;28;20449;-46
2023/10/14 05:50:19;;;;;;;8.30;2.40;;;10.70;87.00;;;;;;5095231;28;20098;-46
2023/10/14 05:52:54;;;;;;;9.60;2.05;;;10.70;87.20;;;;;;5095125;28;20024;-46
2023/10/14 05:55:21;;;;;;;4.82;2.03;;;10.60;87.00;;;;;;5096302;28;20028;-46
2023/10/14 05:57:48;;;;;;;11.30;1.85;;;10.60;86.80;;;;;;5112430;28;20535;-47
2023/10/14 06:00:23;;;;;;;10.75;2.10;;;10.60;86.90;;;;;;5078439;28;20023;-46
2023/10/14 06:02:52;;;;;;;7.72;1.90;;;10.50;86.90;;;;;;5098663;28;20341;-47
2023/10/14 06:05:24;;;;;;;9.30;2.88;;;10.50;86.90;;;;;;5115089;28;20019;-47
2023/10/14 06:08:00;;;;;;;10.32;2.50;;;10.50;86.80;;;;;;5100272;28;20016;-46
2023/10/14 06:10:29;;;;;;;8.88;1.90;;;10.50;86.80;;;;;;5097365;28;20119;-47
2023/10/14 06:12:58;;;;;;;;;;;10.50;86.90;;;;;;5079495;28;20131;-47
2023/10/14 06:15:27;;;;;;;9.33;3.20;;;10.50;87.10;;;;;;5112840;28;19923;-47
2023/10/14 06:17:54;;;;;;;5.65;1.60;;;10.50;87.00;;;;;;5114206;28;20035;-45
2023/10/14 06:20:22;;;;;;;8.88;2.03;;;10.50;87.20;;;;;;5093501;28;20024;-46
2023/10/14 06:22:57;;;;;;;9.45;2.00;;;10.60;87.40;;;;;;5113521;28;20092;-46
2023/10/14 06:25:24;;;;;;;9.82;2.30;;;10.70;87.40;;;;;;5108203;28;20024;-47
2023/10/14 06:27:53;;;;;;;9.32;1.92;;;10.80;87.30;;;;;;5113118;28;20031;-47
2023/10/14 06:30:22;;;;;;;11.23;3.03;;;10.80;86.80;;;;;;5109933;28;20028;-46
2023/10/14 06:32:55;;;;;;;13.10;3.58;;;10.70;86.70;;;;;;5113883;28;20106;-47
2023/10/14 06:35:21;;;;;;;11.77;3.78;;;10.80;86.00;;;;;;5094118;28;20058;-46
2023/10/14 06:37:49;;;;;;;21.38;3.40;;;10.70;85.70;;;;;;5110939;28;20052;-46
2023/10/14 06:40:18;;;;;;;11.90;2.45;;;10.80;85.70;;;;;;5113461;28;20365;-47
2023/10/14 06:42:49;;;;;;;8.50;2.22;;;10.90;85.40;;;;;;5087348;28;20023;-46
2023/10/14 06:45:20;;;;;;;10.18;2.45;;;10.90;85.30;;;;;;5114248;28;20076;-46
2023/10/14 06:47:56;;;;;;;11.82;3.20;;;11.00;85.20;;;;;;5092354;28;20448;-48
2023/10/14 06:50:24;;;;;;;16.15;3.03;;;11.20;85.10;;;;;;5113398;28;20066;-47
2023/10/14 06:52:58;;;;;;;11.88;2.83;;;11.40;84.70;;;;;;5112660;28;20091;-47
2023/10/14 06:55:26;;;;;;;13.73;2.83;;;11.60;83.60;;;;;;5108061;28;20027;-49
2023/10/14 06:57:55;;;;;;;14.77;2.75;;;11.80;83.40;;;;;;5113492;28;20024;-46
2023/10/14 07:00:26;;;;;;;14.55;3.00;;;11.90;83.60;;;;;;5096237;28;20028;-47
2023/10/14 07:02:55;;;;;;;9.95;2.47;;;11.80;82.60;;;;;;5107091;28;20065;-46
2023/10/14 07:05:22;;;;;;;10.80;2.20;;;11.90;84.00;;;;;;5112878;28;20148;-46
2023/10/14 07:07:52;;;;;;;10.93;2.00;;;11.70;83.90;;;;;;5109548;28;20031;-46
2023/10/14 07:10:27;;;;;;;;;;;11.60;83.70;;;;;;5113184;28;20020;-48
2023/10/14 07:13:03;;;;;;;8.27;1.85;;;11.60;83.40;;;;;;5112521;28;19904;-48
2023/10/14 07:15:33;;;;;;;14.13;2.33;;;11.50;83.10;;;;;;5094163;28;20026;-46
2023/10/14 07:17:59;;;;;;;;;;;11.70;84.00;;;;;;5111126;28;20509;-45
2023/10/14 07:20:33;;;;;;;5.85;1.77;;;11.80;82.60;;;;;;5093787;28;20260;-45
2023/10/14 07:23:00;;;;;;;7.43;1.38;;;11.90;82.90;;;;;;5113035;28;20433;-47
2023/10/14 07:25:40;;;;;;;10.90;2.15;;;12.10;82.40;;;;;;5094328;28;20038;-47
2023/10/14 07:28:13;;;;;;;7.38;1.40;;;12.20;82.50;;;;;;5093868;28;20059;-46
2023/10/14 07:30:46;;;;;;;10.63;1.88;;;12.30;81.90;;;;;;5108723;28;20088;-45
2023/10/14 07:33:16;;;;;;;7.15;1.73;;;12.30;81.50;;;;;;5096154;28;20447;-46
2023/10/14 07:35:46;;;;;;;6.85;1.88;;;12.30;81.30;;;;;;5094952;28;20512;-52
2023/10/14 07:38:13;;;;;;;6.72;1.63;;;12.20;82.80;;;;;;5112705;28;20360;-49
2023/10/14 07:40:39;;;;;;;10.07;2.72;;;12.10;83.50;;;;;;5105155;28;20051;-47
2023/10/14 07:43:13;;;;;;;12.90;2.38;;;11.80;83.90;;;;;;5107881;28;20050;-48
2023/10/14 07:45:52;;;;;;;11.82;2.25;;;11.70;83.70;;;;;;5093325;28;20043;-47
2023/10/14 07:48:20;;;;;;;11.82;2.00;;;11.50;83.80;;;;;;5112151;28;20491;-48
2023/10/14 07:50:50;;;;;;;21.83;2.40;;;11.50;84.20;;;;;;5107466;28;20116;-47
2023/10/14 07:53:25;;;;;;;5.32;2.00;;;11.80;84.70;;;;;;5089975;28;20541;-46
2023/10/14 07:55:56;;;;;;;10.80;2.50;;;12.10;84.10;;;;;;5093583;28;20031;-45
2023/10/14 07:58:36;;;;;;;9.57;2.40;;;12.50;83.60;;;;;;5090048;28;20051;-50
2023/10/14 08:01:17;;;;;;;10.85;1.63;;;12.90;83.20;;;;;;5108656;28;20055;-48
2023/10/14 08:03:43;;;;;;;8.68;1.95;;;13.00;81.70;;;;;;5093238;28;20036;-47
2023/10/14 08:06:10;;;;;;;10.15;2.35;;;13.10;81.40;;;;;;5110376;28;20035;-47
2023/10/14 08:08:50;;;;;;;11.45;2.55;;;13.30;81.20;;;;;;5110673;28;20032;-46
2023/10/14 08:11:22;;;;;;;8.75;1.85;;;13.40;79.10;;;;;;5111918;28;20356;-47
2023/10/14 08:13:50;;;;;;;6.57;1.65;;;13.60;78.80;;;;;;5108470;28;20031;-48
2023/10/14 08:16:20;;;;;;;5.97;1.75;;;13.80;78.00;;;;;;5112092;28;20074;-48
2023/10/14 08:18:46;;;;;;;7.88;3.05;;;13.90;76.70;;;;;;5111499;28;20023;-49
2023/10/14 08:21:12;;;;;;;8.15;2.58;;;14.20;75.30;;;;;;5090830;28;20024;-49
2023/10/14 08:23:38;;;;;;;7.53;1.65;;;14.20;74.30;;;;;;5109785;28;20034;-50
2023/10/14 08:26:13;;;;;;;8.10;2.20;;;14.00;75.00;;;;;;5112187;28;20435;-49
2023/10/14 08:28:42;;;;;;;5.07;1.30;;;14.10;74.00;;;;;;5111894;28;20030;-54
2023/10/14 08:31:11;;;;;;;5.85;1.08;;;14.20;74.10;;;;;;5094009;28;20050;-51
2023/10/14 08:33:37;;;;;;;7.00;1.58;;;14.40;72.80;;;;;;5098689;28;20427;-48
2023/10/14 08:36:04;;;;;;;3.25;0.90;;;14.30;75.00;;;;;;5112112;28;20094;-46
2023/10/14 08:38:33;;;;;;;4.85;1.27;;;13.40;72.70;;;;;;5111942;28;20020;-48
2023/10/14 08:41:01;;;;;;;4.07;1.15;;;13.00;74.60;;;;;;5111962;28;20043;-48
2023/10/14 08:43:35;;;;;;;4.55;0.70;;;12.60;75.30;;;;;;5102765;28;20110;-47
2023/10/14 08:46:04;;;;;;;1.55;0.50;;;12.30;75.50;;;;;;5111836;28;20031;-48
2023/10/14 08:48:32;;;;;;;3.10;0.85;;;12.00;75.30;;;;;;5109661;28;20035;-48
2023/10/14 08:50:58;;;;;;;3.35;0.65;;;12.20;75.40;;;;;;5111851;28;20052;-49
2023/10/14 08:53:26;;;;;;;2.85;0.75;;;12.50;73.70;;;;;;5111740;28;20406;-51
2023/10/14 08:55:53;;;;;;;3.45;0.80;;;12.70;72.00;;;;;;5095339;28;20372;-54
2023/10/14 08:58:36;;;;;;;3.63;0.77;;;12.80;73.10;;;;;;5113063;28;20474;-53
2023/10/14 09:01:06;;;;;;;4.07;0.88;;;13.00;73.90;;;;;;5093711;28;20416;-55
2023/10/14 09:03:35;;;;;;;4.60;1.00;;;13.40;73.30;;;;;;5097224;28;20027;-57
2023/10/14 09:06:06;;;;;;;7.00;1.10;;;13.80;72.40;;;;;;5111256;28;20024;-55
2023/10/14 09:08:34;;;;;;;6.15;1.30;;;13.70;70.90;;;;;;5114532;28;20077;-56
2023/10/14 09:11:01;;;;;;;5.90;1.20;;;13.50;73.00;;;;;;5073129;28;20493;-52
2023/10/14 09:13:33;;;;;;;7.13;1.15;;;13.00;72.80;;;;;;5111845;28;20071;-56
2023/10/14 09:16:02;;;;;;;9.25;1.27;;;12.80;72.60;;;;;;5112795;28;20024;-55
2023/10/14 09:18:32;;;;;;;5.28;1.25;;;12.50;73.70;;;;;;5111770;28;20428;-53
2023/10/14 09:21:14;;;;;;;5.07;1.33;;;12.50;74.30;;;;;;5109972;28;20583;-55
2023/10/14 09:23:42;;;;;;;6.90;1.60;;;12.40;75.10;;;;;;5114936;28;20097;-55
2023/10/14 09:26:09;;;;;;;7.03;2.25;;;12.20;76.10;;;;;;5094106;28;20050;-58
2023/10/14 09:28:41;;;;;;;6.00;1.67;;;12.10;77.90;;;;;;5075664;28;20044;-55
2023/10/14 09:31:12;;;;;;;10.05;1.70;;;12.20;78.10;;;;;;5096747;28;20214;-56
2023/10/14 09:33:56;;;;;;;6.38;2.22;;;12.30;78.40;;;;;;5109012;28;20464;-53
2023/10/14 09:36:24;;;;;;;11.65;1.67;;;12.40;78.30;;;;;;5113847;28;20107;-55
2023/10/14 09:38:52;;;;;;;9.90;1.92;;;12.40;78.50;;;;;;5114645;28;20030;-53
2023/10/14 09:41:25;;;;;;;8.10;1.70;;;12.40;78.60;;;;;;5115506;27;20024;-53
2023/10/14 09:44:06;;;;;;;9.25;1.75;;;12.60;79.80;;;;;;5112552;28;20028;-53
2023/10/14 09:46:35;;;;;;;9.48;1.67;;;12.80;79.70;;;;;;5113671;28;20357;-57
2023/10/14 09:49:13;;;;;;;15.20;2.83;;;12.90;79.40;;;;;;5094145;28;20020;-53
2023/10/14 09:51:48;;;;;;;10.38;1.70;;;12.90;79.00;;;;;;5066517;28;20056;-55
2023/10/14 09:54:16;;;;;;;8.93;1.63;;;12.80;78.90;;;;;;5114400;28;20036;-52
2023/10/14 09:56:46;;;;;;;9.32;2.10;;;12.70;78.00;;;;;;5079135;28;20037;-55
2023/10/14 09:59:14;;;;;;;21.65;4.50;;;12.90;79.30;;;;;;5113484;27;20015;-59
2023/10/14 10:01:40;;;;;;;12.23;3.30;;;13.00;81.70;;;;;;5112757;28;20128;-53
2023/10/14 10:04:13;;;;;;;10.60;2.60;;;12.70;81.80;;;;;;5082860;28;20063;-48
2023/10/14 10:07:10;;;;;;;7.03;2.38;;;12.30;82.40;;;;;;5077325;28;20036;-49
2023/10/14 10:10:14;;;;;;;10.50;1.95;;;11.80;83.20;;;;;;5114224;28;20032;-46
2023/10/14 10:12:44;;;;;;;8.95;1.70;;;11.40;83.80;;;;;;5111605;28;20092;-47
2023/10/14 10:15:09;;;;;;;16.88;2.28;;;11.30;83.90;;;;;;5096253;28;20111;-47
2023/10/14 10:17:39;;;;;;;9.90;2.30;;;11.00;84.30;;;;;;5100461;28;20116;-47
2023/10/14 10:20:25;;;;;;;10.20;2.17;;;11.00;85.00;;;;;;5092698;28;20035;-46
2023/10/14 10:22:56;;;;;;;12.45;2.10;;;11.00;85.00;;;;;;5095866;28;20048;-49
2023/10/14 10:25:47;;;;;;;9.70;1.95;;;11.20;85.70;;;;;;5078878;28;20071;-48
2023/10/14 10:28:28;;;;;;;12.40;2.70;;;11.60;86.30;;;;;;5109982;28;20409;-47
2023/10/14 10:31:21;;;;;;;11.75;3.83;;;12.00;85.50;;;;;;5110810;28;20093;-48
2023/10/14 10:34:08;;;;;;;9.35;1.63;;;12.40;83.70;;;;;;5076605;28;20032;-50
2023/10/14 10:36:37;;;;;;;7.32;1.67;;;12.50;83.40;;;;;;5106997;28;20035;-48
2023/10/14 10:39:06;;;;;;;6.20;1.75;;;12.70;82.10;;;;;;5088739;28;20561;-48
2023/10/14 10:41:37;;;;;;;7.05;1.90;;;12.90;80.20;;;;;;5094258;28;20111;-54
2023/10/14 10:44:11;;;;;;;15.15;2.35;;;13.00;79.80;;;;;;5096747;28;20036;-51
2023/10/14 10:46:52;;;;;;;9.88;2.17;;;13.00;79.70;;;;;;5096517;28;20034;-56
2023/10/14 10:50:02;;;;;;;8.07;2.03;;;12.90;79.70;;;;;;5109115;28;20043;-52
2023/10/14 10:52:36;;;;;;;6.00;2.13;;;13.00;78.70;;;;;;5088595;28;20453;-53
2023/10/14 10:55:04;;;;;;;9.13;2.10;;;12.90;77.10;;;;;;5091385;28;20032;-53
2023/10/14 10:57:32;;;;;;;7.00;2.03;;;12.50;75.90;;;;;;5071983;28;20071;-56
2023/10/14 10:59:59;;;;;;;10.55;2.67;;;12.40;76.10;;;;;;5061473;28;20039;-52
2023/10/14 11:02:26;;;;;;;12.77;2.72;;;12.20;77.60;;;;;;5090394;28;20048;-54
2023/10/14 11:04:52;;;;;;;14.63;2.40;;;12.10;78.30;;;;;;5092148;28;20024;-54
2023/10/14 11:07:22;;;;;;;8.40;1.85;;;12.00;78.20;;;;;;5061637;28;20049;-53
2023/10/14 11:10:00;;;;;;;14.00;2.45;;;12.00;79.00;;;;;;5087694;28;20024;-51
2023/10/14 11:12:27;;;;;;;9.40;2.17;;;12.30;80.00;;;;;;5072430;28;20032;-52
2023/10/14 11:14:55;;;;;;;14.02;3.30;;;12.50;79.40;;;;;;5091888;28;20035;-52
2023/10/14 11:17:26;;;;;;;10.77;2.83;;;12.70;78.30;;;;;;5099467;28;20032;-53
2023/10/14 11:19:53;;;;;;;14.65;3.13;;;12.90;78.00;;;;;;5070947;28;20043;-51
2023/10/14 11:22:20;;;;;;;11.85;2.85;;;13.10;77.30;;;;;;5094462;28;20039;-52
2023/10/14 11:24:47;;;;;;;10.73;3.28;;;13.30;78.10;;;;;;5087463;28;20395;-55
2023/10/14 11:27:15;;;;;;;12.32;3.50;;;13.60;76.00;;;;;;5088508;28;20024;-51
2023/10/14 11:29:41;;;;;;;14.75;3.15;;;13.50;77.30;;;;;;5103219;28;20031;-48
2023/10/14 11:32:12;;;;;;;14.88;3.25;;;12.90;78.30;;;;;;5074018;28;20327;-47
2023/10/14 11:34:51;;;;;;;17.77;3.70;;;12.30;81.20;;;;;;5072867;28;20115;-45
2023/10/14 11:37:19;;;;;;;11.70;3.35;;;11.80;82.60;;;;;;5080684;28;20030;-47
2023/10/14 11:39:46;;;;;;;12.98;3.38;;;11.60;83.10;;;;;;5101477;28;20040;-48
2023/10/14 11:42:14;;;;;;;14.07;3.75;;;11.50;83.60;;;;;;5093369;28;20027;-48
2023/10/14 11:44:40;;;;;;;13.90;3.58;;;11.40;83.10;;;;;;5092190;28;20090;-48
2023/10/14 11:47:07;;;;;;;16.70;3.65;;;11.50;83.00;;;;;;5107708;28;20548;-48
2023/10/14 11:49:37;;;;;;;20.20;3.55;;;11.60;83.30;;;;;;5061236;28;20063;-47
2023/10/14 11:52:06;;;;;;;18.33;3.22;;;11.90;82.50;;;;;;5075222;28;20043;-47
2023/10/14 11:54:33;;;;;;;19.60;3.28;;;11.90;82.60;;;;;;5112025;28;20598;-49
2023/10/14 11:57:00;;;;;;;15.60;3.63;;;11.90;81.40;;;;;;5101550;28;20043;-47
2023/10/14 11:59:27;;;;;;;14.40;3.17;;;11.80;80.70;;;;;;5112190;28;20023;-48
2023/10/14 12:01:58;;;;;;;17.67;3.53;;;11.80;79.50;;;;;;5091126;28;20434;-49
2023/10/14 12:04:28;;;;;;;13.73;3.10;;;11.80;79.50;;;;;;5106738;28;20086;-50
2023/10/14 12:06:57;;;;;;;10.35;2.55;;;11.90;78.50;;;;;;5107336;28;20472;-48
2023/10/14 12:09:25;;;;;;;8.13;2.42;;;12.00;78.40;;;;;;5105558;28;20027;-52
2023/10/14 12:11:55;;;;;;;12.55;2.97;;;12.30;78.50;;;;;;5103594;28;20047;-51
2023/10/14 12:14:23;;;;;;;15.05;3.00;;;12.40;77.50;;;;;;5074500;28;20035;-48
2023/10/14 12:16:51;;;;;;;9.70;2.28;;;12.70;77.30;;;;;;5091697;28;20024;-49
2023/10/14 12:19:18;;;;;;;6.70;2.17;;;12.90;76.60;;;;;;5099363;28;20024;-49
2023/10/14 12:21:44;;;;;;;16.80;3.72;;;13.00;75.00;;;;;;5093233;28;20027;-49
2023/10/14 12:24:15;;;;;;;11.13;2.85;;;13.20;71.80;;;;;;5112400;28;20445;-51
2023/10/14 12:26:45;;;;;;;13.57;3.15;;;13.30;69.50;;;;;;5105063;28;20038;-49
2023/10/14 12:29:12;;;;;;;8.07;1.80;;;13.40;68.00;;;;;;5114318;28;20038;-49
2023/10/14 12:31:44;;;;;;;11.93;2.65;;;13.50;66.60;;;;;;5120691;27;20023;-50
2023/10/14 12:34:13;;;;;;;13.48;3.40;;;13.80;69.90;;;;;;5107070;28;20110;-52
2023/10/14 12:36:40;;;;;;;8.30;2.70;;;13.60;71.80;;;;;;5098703;28;20115;-53
2023/10/14 12:39:19;;;;;;;13.02;3.55;;;13.60;72.60;;;;;;5111234;28;20042;-54
2023/10/14 12:41:47;;;;;;;11.18;3.85;;;13.60;74.40;;;;;;5115520;28;20084;-49
2023/10/14 12:44:15;;;;;;;13.50;3.27;;;13.70;75.00;;;;;;5115682;28;20345;-48
2023/10/14 12:46:43;;;;;;;15.82;4.05;;;13.90;75.20;;;;;;5097943;28;20284;-48
2023/10/14 12:49:17;;;;;;;11.73;2.83;;;13.80;75.10;;;;;;5108195;28;20044;-46
2023/10/14 12:51:46;;;;;;;9.90;2.33;;;13.00;76.60;;;;;;5087998;28;20076;-46
2023/10/14 12:54:20;;;;;;;10.20;2.25;;;12.60;77.00;;;;;;5077408;28;20047;-46
2023/10/14 12:56:47;;;;;;;7.97;1.90;;;12.50;76.90;;;;;;5096406;28;20051;-47
2023/10/14 12:59:15;;;;;;;8.25;2.42;;;12.40;75.80;;;;;;5096985;28;20024;-46
2023/10/14 13:01:56;;;;;;;5.88;1.00;;;12.40;73.70;;;;;;5082065;28;20377;-49
2023/10/14 13:04:27;;;;;;;5.80;1.20;;;12.40;73.00;;;;;;5084559;28;20031;-47
2023/10/14 13:06:56;;;;;;;11.75;2.03;;;12.40;72.40;;;;;;5092994;28;20414;-50
2023/10/14 13:09:27;;;;;;;8.90;1.55;;;12.40;72.40;;;;;;5089694;28;20032;-51
2023/10/14 13:11:55;;;;;;;5.90;1.42;;;12.50;71.80;;;;;;5096956;28;20040;-48
2023/10/14 13:14:27;;;;;;;7.07;1.50;;;12.60;70.60;;;;;;5079084;28;20017;-48
2023/10/14 13:16:59;;;;;;;12.60;3.75;;;12.80;71.40;;;;;;5073637;28;20039;-50
2023/10/14 13:19:32;;;;;;;6.18;1.90;;;12.90;72.80;;;;;;5089293;28;20437;-49
2023/10/14 13:22:09;;;;;;;9.38;2.13;;;13.00;71.90;;;;;;5093869;28;20477;-49
2023/10/14 13:24:38;;;;;;;12.07;2.70;;;12.70;75.90;;;;;;5077951;28;20418;-47
2023/10/14 13:27:05;;;;;;;9.40;2.83;;;12.30;78.70;;;;;;5075939;28;20024;-46
2023/10/14 13:29:35;;;;;;;12.85;2.35;;;12.00;80.30;;;;;;5088295;28;20032;-51
2023/10/14 13:32:03;;;;;;;11.52;3.25;;;11.80;80.00;;;;;;5088198;28;20036;-46
2023/10/14 13:34:32;;;;;;;11.82;2.40;;;11.50;80.70;;;;;;5090675;28;20024;-46
2023/10/14 13:36:59;;;;;;;11.03;3.07;;;11.50;81.00;;;;;;5074510;28;20487;-46
2023/10/14 13:39:34;;;;;;;11.57;2.60;;;11.50;80.80;;;;;;5073390;28;20063;-50